Time;durP1;ratioP1;P1;durP2;ratioP2;P2;SDS_P1;SDS_P2;PMS_P1;PMS_P2;Temp;Humidity;BMP_temperature;BMP_pressure;BME280_temperature;BME280_humidity;BME280_pressure;Samples;Min_cycle;Max_cycle;Signal;HPM_P1;HPM_P2
2022/04/07 00:00:13;;;;;;;3.17;1.90;;;15.40;61.00;;;-142.21;100.00;112049.66;5052553;28;20531;-75
2022/04/07 00:02:40;;;;;;;1.90;1.80;;;15.40;61.40;;;-142.21;100.00;112049.66;5053581;28;20932;-75
2022/04/07 00:05:09;;;;;;;1.70;1.60;;;15.30;61.80;;;-142.21;100.00;112049.66;5058279;28;20939;-75
2022/04/07 00:07:36;;;;;;;1.67;1.57;;;15.30;62.00;;;-142.21;100.00;112049.66;5051004;28;20436;-75
2022/04/07 00:10:04;;;;;;;2.63;1.90;;;15.30;62.70;;;-142.21;100.00;112049.66;5070806;28;20451;-75
2022/04/07 00:12:32;;;;;;;2.10;1.90;;;15.20;62.80;;;-142.21;100.00;112049.66;5056590;28;20538;-74
2022/04/07 00:15:00;;;;;;;1.97;1.73;;;15.20;62.70;;;-142.21;100.00;112049.66;5043421;28;20460;-75
2022/04/07 00:17:28;;;;;;;2.27;2.03;;;15.20;62.90;;;-142.21;100.00;112049.66;5070423;28;20487;-74
2022/04/07 00:19:55;;;;;;;2.30;1.70;;;15.30;62.80;;;-142.21;100.00;112049.66;5045121;28;20454;-74
2022/04/07 00:22:23;;;;;;;2.03;1.70;;;15.30;62.80;;;-142.21;100.00;112049.66;5044951;28;20539;-74
2022/04/07 00:24:50;;;;;;;2.47;1.80;;;15.30;63.60;;;-142.21;100.00;112049.66;5054991;28;20478;-74
2022/04/07 00:27:17;;;;;;;1.70;1.60;;;15.30;62.60;;;-142.21;100.00;112049.66;5050147;28;20460;-74
2022/04/07 00:29:45;;;;;;;1.47;1.13;;;15.20;62.30;;;-142.21;100.00;112049.66;5048385;28;20862;-74
2022/04/07 00:32:12;;;;;;;1.40;1.30;;;15.30;61.70;;;-142.21;100.00;112049.66;5051544;28;20998;-74
2022/04/07 00:34:43;;;;;;;1.60;1.40;;;15.30;61.30;;;-142.21;100.00;112049.66;5048721;28;20484;-74
2022/04/07 00:37:10;;;;;;;2.10;1.57;;;15.30;60.90;;;-142.21;99.47;112049.66;5044743;28;20472;-74
2022/04/07 00:39:39;;;;;;;1.50;1.40;;;15.30;60.00;;;-142.21;100.00;112049.66;5051775;28;20503;-74
2022/04/07 00:42:06;;;;;;;2.07;1.80;;;15.20;61.00;;;-142.21;100.00;112049.66;5040323;28;20823;-74
2022/04/07 00:44:33;;;;;;;1.70;1.60;;;15.20;62.00;;;-142.21;100.00;112049.66;5042266;28;20488;-74
2022/04/07 00:47:00;;;;;;;1.80;1.70;;;15.10;62.70;;;-142.21;100.00;112049.66;5043134;28;20452;-75
2022/04/07 00:49:27;;;;;;;2.30;1.53;;;15.10;63.60;;;-142.21;100.00;112049.66;5051122;28;20456;-75
2022/04/07 00:51:55;;;;;;;1.93;1.73;;;15.00;63.80;;;-142.21;100.00;112049.66;5044753;28;20956;-75
2022/04/07 00:54:22;;;;;;;1.40;1.30;;;15.00;64.00;;;-142.21;100.00;112049.66;5033137;28;20941;-75
2022/04/07 00:56:51;;;;;;;1.67;1.57;;;14.90;64.20;;;-142.21;100.00;112049.66;5050802;28;20520;-76
2022/04/07 00:59:18;;;;;;;1.53;1.43;;;15.00;63.90;;;-142.21;100.00;112049.66;5036979;28;20531;-75
2022/04/07 01:01:46;;;;;;;2.30;1.57;;;15.00;63.50;;;-142.21;100.00;112049.66;5049166;28;20452;-75
2022/04/07 01:04:13;;;;;;;1.53;1.30;;;15.00;63.20;;;-142.21;100.00;112049.66;5046671;28;20450;-75
2022/04/07 01:06:42;;;;;;;1.63;1.17;;;14.90;62.30;;;-142.21;100.00;112049.66;5044703;28;20444;-74
2022/04/07 01:09:10;;;;;;;1.07;0.97;;;14.80;61.90;;;-142.21;100.00;112049.66;5049744;28;20448;-74
2022/04/07 01:11:39;;;;;;;2.27;1.00;;;14.80;61.80;;;-142.21;100.00;112049.66;5049224;28;20567;-74
2022/04/07 01:14:08;;;;;;;0.90;0.90;;;14.80;61.60;;;-142.21;100.00;112049.66;5050419;28;20439;-74
2022/04/07 01:16:36;;;;;;;1.00;0.90;;;14.80;61.30;;;-142.21;100.00;112049.66;5038345;28;20485;-74
2022/04/07 01:19:04;;;;;;;0.80;0.80;;;14.80;61.10;;;-142.21;100.00;112049.66;5037541;28;20530;-73
2022/04/07 01:21:33;;;;;;;0.80;0.70;;;14.80;61.20;;;-142.21;100.00;112049.66;5053247;28;20479;-74
2022/04/07 01:24:05;;;;;;;0.80;0.80;;;14.80;61.20;;;-142.21;100.00;112049.66;5055499;28;20471;-74
2022/04/07 01:26:38;;;;;;;0.80;0.80;;;14.80;61.40;;;-142.21;100.00;112049.66;5048171;28;20962;-74
2022/04/07 01:29:07;;;;;;;0.60;0.60;;;14.80;61.50;;;-142.21;100.00;112049.66;5054902;28;20800;-74
2022/04/07 01:31:34;;;;;;;0.90;0.80;;;14.80;61.30;;;-142.21;100.00;112049.66;5058435;28;20494;-74
2022/04/07 01:34:05;;;;;;;1.17;1.00;;;14.80;61.40;;;-142.21;100.00;112049.66;5052068;28;20455;-75
2022/04/07 01:36:37;;;;;;;1.20;0.80;;;14.80;61.20;;;-142.21;100.00;112049.66;5054705;28;20928;-74
2022/04/07 01:39:07;;;;;;;0.70;0.70;;;14.80;61.20;;;-142.21;100.00;112049.66;5049872;28;20864;-75
2022/04/07 01:41:36;;;;;;;1.50;1.00;;;14.80;61.00;;;-142.21;100.00;112049.66;5060506;28;20830;-75
2022/04/07 01:44:05;;;;;;;1.00;1.00;;;14.90;61.30;;;-142.21;100.00;112049.66;5058182;28;20463;-74
2022/04/07 01:46:34;;;;;;;1.07;0.97;;;14.90;61.70;;;-142.21;100.00;112049.66;5054410;28;20452;-74
2022/04/07 01:49:04;;;;;;;0.83;0.83;;;14.90;62.70;;;-142.21;100.00;112049.66;5034360;28;20453;-74
2022/04/07 01:51:32;;;;;;;0.93;0.83;;;14.80;63.60;;;-142.21;100.00;112049.66;5053727;28;20445;-75
2022/04/07 01:53:59;;;;;;;0.77;0.77;;;14.80;64.50;;;-142.21;100.00;112049.66;5050302;28;20549;-75
2022/04/07 01:56:27;;;;;;;1.40;1.00;;;14.70;65.00;;;-142.21;100.00;112049.66;5053302;28;20491;-75
2022/04/07 01:58:56;;;;;;;0.90;0.90;;;14.70;64.40;;;-142.21;100.00;112049.66;5074073;28;20487;-75
2022/04/07 02:01:23;;;;;;;0.93;0.93;;;14.70;65.00;;;-142.21;100.00;112049.66;5059661;28;20789;-74
2022/04/07 02:03:50;;;;;;;0.90;0.90;;;14.60;64.30;;;-142.21;100.00;112049.66;5055934;28;20455;-75
2022/04/07 02:06:19;;;;;;;1.10;0.93;;;14.50;64.70;;;-142.21;100.00;112049.66;5052653;28;20435;-75
2022/04/07 02:08:47;;;;;;;0.90;0.90;;;14.50;64.80;;;-142.21;100.00;112049.66;5065409;28;20444;-75
2022/04/07 02:11:14;;;;;;;1.90;1.03;;;14.40;64.70;;;-142.21;100.00;112049.66;5043736;28;20549;-76
2022/04/07 02:13:42;;;;;;;1.13;1.03;;;14.40;65.10;;;-142.21;100.00;112049.66;5054095;28;20487;-74
2022/04/07 02:16:12;;;;;;;1.93;0.90;;;14.40;65.60;;;-142.21;100.00;112049.66;5053517;28;20448;-74
2022/04/07 02:18:40;;;;;;;1.20;1.10;;;14.40;65.20;;;-142.21;100.00;112049.66;5055594;28;20578;-74
2022/04/07 02:21:09;;;;;;;1.50;1.20;;;14.30;65.80;;;-142.21;100.00;112049.66;5054197;28;20448;-74
2022/04/07 02:23:42;;;;;;;1.00;1.00;;;14.30;66.00;;;-142.21;100.00;112049.66;5055316;28;20536;-75
2022/04/07 02:26:12;;;;;;;3.27;1.10;;;14.20;65.90;;;-142.21;100.00;112049.66;5046694;28;21129;-74
2022/04/07 02:28:39;;;;;;;0.70;0.70;;;14.20;65.70;;;-142.21;100.00;112049.66;5060684;28;20467;-75
2022/04/07 02:31:06;;;;;;;0.93;0.93;;;14.20;66.00;;;-142.21;100.00;112049.66;5053232;28;20801;-75
2022/04/07 02:33:35;;;;;;;1.03;1.00;;;14.20;65.60;;;-142.21;100.00;112049.66;5054133;28;20452;-75
2022/04/07 02:36:02;;;;;;;1.30;1.20;;;14.20;65.70;;;-142.21;100.00;112049.66;5055231;28;20518;-75
2022/04/07 02:38:30;;;;;;;1.20;1.10;;;14.20;65.80;;;-142.21;100.00;112049.66;5050118;28;20556;-74
2022/04/07 02:40:57;;;;;;;1.67;1.00;;;14.20;65.70;;;-142.21;100.00;112049.66;5054091;28;20492;-74
2022/04/07 02:43:25;;;;;;;1.57;1.00;;;14.20;65.80;;;-142.21;100.00;112049.66;5053389;28;20456;-74
2022/04/07 02:45:52;;;;;;;0.80;0.70;;;14.20;65.40;;;-142.21;100.00;112049.66;5056151;28;20873;-74
2022/04/07 02:48:19;;;;;;;1.27;0.90;;;14.20;64.90;;;-142.21;100.00;112049.66;5072618;28;20437;-74
2022/04/07 02:50:47;;;;;;;1.10;1.00;;;14.20;64.70;;;-142.21;100.00;112049.66;5062520;28;20953;-74
2022/04/07 02:53:14;;;;;;;1.73;0.87;;;14.20;64.60;;;-142.21;100.00;112049.66;5062654;28;20448;-74
2022/04/07 02:55:42;;;;;;;0.90;0.90;;;14.20;64.80;;;-142.21;100.00;112049.66;5061005;28;20539;-74
2022/04/07 02:58:09;;;;;;;0.70;0.70;;;14.30;64.10;;;-142.21;100.00;112049.66;5073458;28;20486;-74
2022/04/07 03:00:36;;;;;;;0.80;0.70;;;14.30;63.90;;;-142.21;100.00;112049.66;5056232;28;20456;-74
2022/04/07 03:03:03;;;;;;;1.47;0.90;;;14.30;63.80;;;-142.21;100.00;112049.66;5056595;28;20944;-74
2022/04/07 03:05:30;;;;;;;0.77;0.77;;;14.30;63.90;;;-142.21;100.00;112049.66;5049097;28;20452;-74
2022/04/07 03:07:59;;;;;;;0.70;0.70;;;14.30;64.20;;;-142.21;100.00;112049.66;5069173;28;20490;-74
2022/04/07 03:10:26;;;;;;;0.70;0.70;;;14.30;63.70;;;-142.21;100.00;112049.66;5063974;28;20448;-74
2022/04/07 03:12:53;;;;;;;0.80;0.80;;;14.30;63.50;;;-142.21;100.00;112049.66;5051708;28;20920;-74
2022/04/07 03:15:20;;;;;;;0.80;0.80;;;14.40;63.50;;;-142.21;100.00;112049.66;5052871;28;20456;-74
2022/04/07 03:17:47;;;;;;;0.70;0.70;;;14.50;63.30;;;-142.21;100.00;112049.66;5071507;28;20572;-74
2022/04/07 03:20:14;;;;;;;0.87;0.87;;;14.40;63.00;;;-142.21;100.00;112049.66;5062624;28;21124;-74
2022/04/07 03:22:43;;;;;;;1.60;1.23;;;14.40;62.90;;;-142.21;100.00;112049.66;5067460;28;20581;-74
2022/04/07 03:25:11;;;;;;;0.70;0.70;;;14.50;62.20;;;-142.21;100.00;112049.66;5054091;28;20490;-74
2022/04/07 03:27:38;;;;;;;0.70;0.63;;;14.50;62.40;;;-142.21;100.00;112049.66;5059723;28;20470;-74
2022/04/07 03:30:07;;;;;;;0.70;0.70;;;14.50;62.30;;;-142.21;99.59;112049.66;5069049;28;20459;-74
2022/04/07 03:32:35;;;;;;;1.00;0.97;;;14.50;61.70;;;-142.21;100.00;112049.66;5059168;28;20448;-74
2022/04/07 03:35:02;;;;;;;0.70;0.70;;;14.50;61.70;;;-142.21;99.89;112049.66;5054606;28;20811;-75
2022/04/07 03:37:29;;;;;;;0.80;0.80;;;14.50;61.60;;;-142.21;100.00;112049.66;5041926;28;20492;-74
2022/04/07 03:39:56;;;;;;;0.60;0.60;;;14.60;61.60;;;-142.21;99.67;112049.66;5053859;28;20547;-74
2022/04/07 03:42:24;;;;;;;0.80;0.80;;;14.60;61.30;;;-142.21;99.12;112049.66;5051473;28;20462;-74
2022/04/07 03:44:51;;;;;;;0.73;0.73;;;14.60;61.10;;;-142.21;100.00;112049.66;5052865;28;20448;-74
2022/04/07 03:47:18;;;;;;;0.80;0.80;;;14.70;61.00;;;-142.21;99.36;112049.66;5051692;28;20459;-74
2022/04/07 03:49:45;;;;;;;1.00;0.90;;;14.70;60.60;;;-142.21;100.00;112049.66;5056936;28;20462;-73
2022/04/07 03:52:15;;;;;;;0.77;0.77;;;14.70;61.00;;;-142.21;99.52;112049.66;5053428;28;20464;-74
2022/04/07 03:54:42;;;;;;;1.37;1.00;;;14.70;61.00;;;-142.21;99.84;112049.66;5062251;28;20665;-74
2022/04/07 03:57:10;;;;;;;2.20;0.90;;;14.60;61.00;;;-142.21;100.00;112049.66;5059560;28;20452;-74
2022/04/07 03:59:39;;;;;;;1.10;1.00;;;14.70;61.60;;;-142.21;100.00;112049.66;5051448;28;20584;-74
2022/04/07 04:02:07;;;;;;;0.80;0.80;;;14.60;61.30;;;-142.21;100.00;112049.66;5047486;28;20523;-74
2022/04/07 04:04:35;;;;;;;0.80;0.80;;;14.70;61.70;;;-142.21;100.00;112049.66;5051760;28;20448;-74
2022/04/07 04:07:02;;;;;;;0.97;0.97;;;14.60;61.80;;;-142.21;100.00;112049.66;5052263;28;20451;-74
2022/04/07 04:09:30;;;;;;;1.40;0.90;;;14.60;61.70;;;-142.21;100.00;112049.66;5052146;28;21035;-74
2022/04/07 04:11:57;;;;;;;1.17;1.07;;;14.60;61.80;;;-142.21;100.00;112049.66;5052402;28;20475;-74
2022/04/07 04:14:24;;;;;;;0.80;0.80;;;14.50;61.90;;;-142.21;100.00;112049.66;5052060;28;20495;-74
2022/04/07 04:16:53;;;;;;;1.23;0.83;;;14.50;61.90;;;-142.21;100.00;112049.66;5067158;28;20439;-74
2022/04/07 04:19:20;;;;;;;0.73;0.73;;;14.50;62.30;;;-142.21;100.00;112049.66;5059701;28;20481;-74
2022/04/07 04:21:48;;;;;;;0.93;0.93;;;14.50;62.00;;;-142.21;100.00;112049.66;5044597;28;20453;-74
2022/04/07 04:24:15;;;;;;;1.27;1.00;;;14.40;62.20;;;-142.21;100.00;112049.66;5057476;28;20515;-74
2022/04/07 04:26:42;;;;;;;1.20;1.10;;;14.50;62.00;;;-142.21;100.00;112049.66;5062219;28;20458;-74
2022/04/07 04:29:09;;;;;;;0.90;0.90;;;14.50;62.00;;;-142.21;100.00;112049.66;5052476;28;20463;-74
2022/04/07 04:31:36;;;;;;;1.53;0.83;;;14.60;62.60;;;-142.21;100.00;112049.66;5052966;28;20828;-74
2022/04/07 04:34:05;;;;;;;1.90;1.03;;;14.70;61.70;;;-142.21;100.00;112049.66;5050574;28;20539;-74
2022/04/07 04:36:34;;;;;;;1.67;0.80;;;14.60;61.70;;;-142.21;100.00;112049.66;5045772;28;20455;-74
2022/04/07 04:39:01;;;;;;;1.30;1.20;;;14.60;62.00;;;-142.21;100.00;112049.66;5049310;28;20519;-74
2022/04/07 04:41:28;;;;;;;1.20;1.10;;;14.50;62.20;;;-142.21;100.00;112049.66;5051135;28;20529;-74
2022/04/07 04:43:56;;;;;;;1.00;0.90;;;14.50;62.10;;;-142.21;100.00;112049.66;5052891;28;20807;-74
2022/04/07 04:46:23;;;;;;;1.80;0.97;;;14.50;62.30;;;-142.21;100.00;112049.66;5057217;28;20459;-75
2022/04/07 04:48:51;;;;;;;1.90;1.13;;;14.50;62.60;;;-142.21;100.00;112049.66;5057618;28;20531;-75
2022/04/07 04:51:19;;;;;;;2.23;1.20;;;14.50;62.50;;;-142.21;100.00;112049.66;5056719;28;20452;-75
2022/04/07 04:53:46;;;;;;;0.90;0.90;;;14.50;62.60;;;-142.21;100.00;112049.66;5057202;28;20541;-74
2022/04/07 04:56:14;;;;;;;1.67;0.87;;;14.50;62.60;;;-142.21;100.00;112049.66;5069109;28;20447;-74
2022/04/07 04:58:41;;;;;;;0.93;0.93;;;14.50;62.40;;;-142.21;100.00;112049.66;5063223;28;20486;-74
2022/04/07 05:01:08;;;;;;;0.60;0.60;;;14.40;62.40;;;-142.21;100.00;112049.66;5057247;28;20458;-75
2022/04/07 05:03:35;;;;;;;1.07;0.97;;;14.40;62.50;;;-142.21;100.00;112049.66;5047688;28;20451;-75
2022/04/07 05:06:03;;;;;;;0.77;0.77;;;14.40;62.90;;;-142.21;100.00;112049.66;5052354;28;20451;-75
2022/04/07 05:08:32;;;;;;;1.10;1.00;;;14.40;62.90;;;-142.21;100.00;112049.66;5054886;28;20448;-75
2022/04/07 05:10:59;;;;;;;1.03;0.97;;;14.50;62.50;;;-142.21;100.00;112049.66;5056092;28;20891;-74
2022/04/07 05:13:26;;;;;;;0.80;0.80;;;14.50;62.50;;;-142.21;100.00;112049.66;5051926;28;20476;-75
2022/04/07 05:15:53;;;;;;;1.30;0.90;;;14.40;62.70;;;-142.21;100.00;112049.66;5058297;28;20536;-75
2022/04/07 05:18:20;;;;;;;1.03;0.93;;;14.40;62.50;;;-142.21;100.00;112049.66;5055007;28;20492;-75
2022/04/07 05:20:47;;;;;;;0.57;0.57;;;14.50;62.60;;;-142.21;100.00;112049.66;5054530;28;20456;-75
2022/04/07 05:23:14;;;;;;;0.63;0.63;;;14.50;62.40;;;-142.21;100.00;112049.66;5048019;28;20532;-73
2022/04/07 05:25:43;;;;;;;0.70;0.70;;;14.50;62.40;;;-142.21;100.00;112049.66;5041857;28;20831;-74
2022/04/07 05:28:10;;;;;;;0.83;0.83;;;14.50;62.40;;;-142.21;100.00;112049.66;5052093;28;20463;-75
2022/04/07 05:30:37;;;;;;;0.80;0.80;;;14.40;62.60;;;-142.21;100.00;112049.66;5055175;28;20444;-74
2022/04/07 05:33:04;;;;;;;0.73;0.60;;;14.50;62.40;;;-142.21;100.00;112049.66;5046541;28;20539;-74
2022/04/07 05:35:32;;;;;;;0.70;0.70;;;14.50;62.40;;;-142.21;100.00;112049.66;5061460;28;20476;-74
2022/04/07 05:38:00;;;;;;;0.90;0.90;;;14.50;62.30;;;-142.21;100.00;112049.66;5038702;28;20530;-74
2022/04/07 05:40:27;;;;;;;0.90;0.87;;;14.60;62.50;;;-142.21;100.00;112049.66;5058002;28;20480;-74
2022/04/07 05:42:56;;;;;;;0.70;0.70;;;14.50;63.00;;;-142.21;100.00;112049.66;5053258;28;20452;-74
2022/04/07 05:45:23;;;;;;;0.57;0.57;;;14.50;62.20;;;-142.21;100.00;112049.66;5049074;28;20452;-74
2022/04/07 05:47:51;;;;;;;0.60;0.50;;;14.60;62.40;;;-142.21;100.00;112049.66;5050200;28;20449;-74
2022/04/07 05:50:18;;;;;;;0.70;0.70;;;14.60;62.00;;;-142.21;100.00;112049.66;5043286;28;20475;-74
2022/04/07 05:52:45;;;;;;;3.03;0.83;;;14.60;62.00;;;-142.21;100.00;112049.66;5053663;28;20452;-74
2022/04/07 05:55:12;;;;;;;1.10;0.90;;;14.70;62.00;;;-142.21;100.00;112049.66;5053948;28;20558;-74
2022/04/07 05:57:39;;;;;;;0.60;0.60;;;14.70;61.90;;;-142.21;100.00;112049.66;5054636;28;20454;-74
2022/04/07 06:00:17;;;;;;;0.80;0.80;;;14.70;62.70;;;-142.21;100.00;112049.66;5051944;28;20491;-74
2022/04/07 06:02:45;;;;;;;0.57;0.57;;;14.70;62.20;;;-142.21;100.00;112049.66;5052032;28;20443;-74
2022/04/07 06:05:16;;;;;;;0.80;0.60;;;14.70;61.80;;;-142.21;100.00;112049.66;5053776;28;20940;-74
2022/04/07 06:07:44;;;;;;;1.17;0.83;;;14.80;61.60;;;-142.21;100.00;112049.66;5054000;28;20469;-74
2022/04/07 06:10:11;;;;;;;2.30;0.63;;;14.80;61.80;;;-142.21;100.00;112049.66;5053997;28;20436;-73
2022/04/07 06:12:42;;;;;;;0.70;0.47;;;14.80;61.90;;;-142.21;100.00;112049.66;5052363;28;20478;-74
2022/04/07 06:15:11;;;;;;;0.60;0.60;;;14.70;62.90;;;-142.21;100.00;112049.66;5058631;28;20443;-73
2022/04/07 06:17:40;;;;;;;0.70;0.60;;;14.70;64.20;;;-142.21;100.00;112049.66;5055583;28;20452;-74
2022/04/07 06:20:10;;;;;;;0.50;0.50;;;14.70;64.40;;;-142.21;100.00;112049.66;5042954;28;20511;-74
2022/04/07 06:22:38;;;;;;;0.60;0.60;;;14.70;64.50;;;-142.21;100.00;112049.66;5052771;28;20792;-74
2022/04/07 06:25:07;;;;;;;0.50;0.50;;;14.60;64.80;;;-142.21;100.00;112049.66;5052862;28;20547;-74
2022/04/07 06:27:35;;;;;;;0.60;0.60;;;14.60;64.70;;;-142.21;100.00;112049.66;5052948;28;20671;-74
2022/04/07 06:30:05;;;;;;;0.50;0.50;;;14.60;64.90;;;-142.21;100.00;112049.66;5052747;28;20531;-74
2022/04/07 06:32:33;;;;;;;0.53;0.53;;;14.50;65.00;;;-142.21;100.00;112049.66;5049747;28;20519;-74
2022/04/07 06:35:01;;;;;;;0.70;0.70;;;14.50;64.90;;;-142.21;100.00;112049.66;5053947;28;20543;-74
2022/04/07 06:37:28;;;;;;;0.40;0.40;;;14.50;65.40;;;-142.21;100.00;112049.66;5053562;28;20480;-74
2022/04/07 06:40:01;;;;;;;0.57;0.50;;;14.60;65.00;;;-142.21;100.00;112049.66;5065247;28;20515;-73
2022/04/07 06:42:28;;;;;;;0.40;0.40;;;14.70;64.90;;;-142.21;100.00;112049.66;5053990;28;20459;-73
2022/04/07 06:44:56;;;;;;;0.87;0.60;;;14.70;64.40;;;-142.21;100.00;112049.66;5053608;28;20970;-73
2022/04/07 06:47:23;;;;;;;2.80;0.70;;;14.60;64.30;;;-142.21;100.00;112049.66;5054144;28;20448;-74
2022/04/07 06:49:52;;;;;;;0.40;0.40;;;14.60;64.30;;;-142.21;100.00;112049.66;5053055;28;20453;-74
2022/04/07 06:52:20;;;;;;;0.40;0.40;;;14.70;64.90;;;-142.21;100.00;112049.66;5054102;28;20544;-73
2022/04/07 06:54:47;;;;;;;0.70;0.70;;;14.60;64.80;;;-142.21;100.00;112049.66;5053773;28;20484;-73
2022/04/07 06:57:14;;;;;;;0.30;0.30;;;14.60;65.90;;;-142.21;100.00;112049.66;5054501;28;20475;-73
2022/04/07 06:59:41;;;;;;;0.50;0.50;;;14.50;65.30;;;-142.21;100.00;112049.66;5053553;28;20579;-73
2022/04/07 07:02:09;;;;;;;0.50;0.50;;;14.50;66.10;;;-142.21;100.00;112049.66;5053172;28;20543;-73
2022/04/07 07:04:36;;;;;;;0.50;0.50;;;14.60;66.10;;;-142.21;100.00;112049.66;5053520;28;20448;-73
2022/04/07 07:07:05;;;;;;;0.70;0.50;;;14.60;66.90;;;-142.21;100.00;112049.66;5052812;28;20479;-73
2022/04/07 07:09:32;;;;;;;0.50;0.50;;;14.70;66.60;;;-142.21;100.00;112049.66;5053449;28;20448;-73
2022/04/07 07:11:59;;;;;;;0.40;0.40;;;14.70;65.90;;;-142.21;100.00;112049.66;5052664;28;20511;-74
2022/04/07 07:14:26;;;;;;;0.70;0.70;;;14.60;66.70;;;-142.21;100.00;112049.66;5053468;28;21032;-73
2022/04/07 07:16:54;;;;;;;0.40;0.40;;;14.60;67.30;;;-142.21;100.00;112049.66;5052964;28;20445;-74
2022/04/07 07:19:26;;;;;;;0.40;0.40;;;14.60;67.30;;;-142.21;100.00;112049.66;5055385;28;20511;-74
2022/04/07 07:21:53;;;;;;;0.40;0.40;;;14.70;68.80;;;-142.21;100.00;112049.66;5054620;28;20456;-73
2022/04/07 07:24:22;;;;;;;0.40;0.40;;;14.80;68.20;;;-142.21;100.00;112049.66;5052153;28;20452;-73
2022/04/07 07:26:49;;;;;;;1.07;0.67;;;14.80;68.10;;;-142.21;100.00;112049.66;5054023;28;20543;-73
2022/04/07 07:29:17;;;;;;;0.77;0.63;;;14.90;68.10;;;-142.21;100.00;112049.66;5052387;28;20523;-74
2022/04/07 07:31:46;;;;;;;0.93;0.70;;;14.80;67.20;;;-142.21;100.00;112049.66;5053588;28;20955;-74
2022/04/07 07:34:14;;;;;;;0.40;0.40;;;14.80;67.50;;;-142.21;100.00;112049.66;5052457;28;20448;-74
2022/04/07 07:36:41;;;;;;;0.50;0.50;;;14.80;67.70;;;-142.21;100.00;112049.66;5053712;28;20444;-74
2022/04/07 07:39:08;;;;;;;0.90;0.60;;;14.80;67.70;;;-142.21;100.00;112049.66;5053470;28;20857;-74
2022/04/07 07:41:38;;;;;;;0.50;0.50;;;14.90;66.60;;;-142.21;100.00;112049.66;5052842;28;20466;-74
2022/04/07 07:44:06;;;;;;;0.70;0.50;;;14.90;66.40;;;-142.21;100.00;112049.66;5052990;28;20816;-73
2022/04/07 07:46:33;;;;;;;0.60;0.50;;;15.00;66.90;;;-142.21;100.00;112049.66;5052750;28;20484;-73
2022/04/07 07:49:01;;;;;;;0.43;0.43;;;15.00;65.90;;;-142.21;100.00;112049.66;5052852;28;20448;-73
2022/04/07 07:51:28;;;;;;;0.80;0.77;;;15.00;66.10;;;-142.21;100.00;112049.66;5052917;28;20444;-74
2022/04/07 07:53:59;;;;;;;0.50;0.50;;;15.10;64.90;;;-142.21;100.00;112049.66;5052766;28;20448;-74
2022/04/07 07:56:26;;;;;;;0.80;0.80;;;15.10;65.40;;;-142.21;100.00;112049.66;5052715;28;20820;-74
2022/04/07 07:58:55;;;;;;;0.63;0.50;;;15.20;64.90;;;-142.21;100.00;112049.66;5052922;28;20491;-75
2022/04/07 08:01:22;;;;;;;0.53;0.53;;;15.20;64.30;;;-142.21;100.00;112049.66;5052813;28;20459;-75
2022/04/07 08:03:50;;;;;;;0.67;0.67;;;15.30;64.50;;;-142.21;100.00;112049.66;5051614;28;20466;-75
2022/04/07 08:06:17;;;;;;;0.87;0.50;;;15.30;64.40;;;-142.21;100.00;112049.66;5052397;28;20501;-74
2022/04/07 08:08:44;;;;;;;0.70;0.70;;;15.50;64.20;;;-142.21;100.00;112049.66;5051310;28;20460;-74
2022/04/07 08:11:11;;;;;;;0.53;0.53;;;15.60;64.50;;;-142.21;100.00;112049.66;5064552;28;20560;-75
2022/04/07 08:13:39;;;;;;;0.80;0.80;;;15.80;64.50;;;-142.21;100.00;112049.66;5070461;28;20480;-74
2022/04/07 08:16:08;;;;;;;0.80;0.80;;;15.90;63.70;;;-142.21;100.00;112049.66;5070711;28;20447;-74
2022/04/07 08:18:36;;;;;;;1.07;0.67;;;16.00;62.40;;;-142.21;100.00;112049.66;5060946;28;20458;-73
2022/04/07 08:21:03;;;;;;;0.60;0.60;;;16.10;62.60;;;-142.21;100.00;112049.66;5065465;28;20445;-75
2022/04/07 08:23:30;;;;;;;0.77;0.47;;;16.20;61.10;;;-142.21;100.00;112049.66;5052233;28;20458;-75
2022/04/07 08:25:58;;;;;;;1.47;0.70;;;16.30;61.40;;;-142.21;99.83;112049.66;5055123;28;20490;-75
2022/04/07 08:28:26;;;;;;;0.40;0.40;;;16.40;60.20;;;-142.21;99.00;112049.66;5053478;28;20445;-75
2022/04/07 08:30:54;;;;;;;1.77;0.60;;;16.30;59.60;;;-142.21;100.00;112049.66;5052836;28;20447;-75
2022/04/07 08:33:22;;;;;;;0.50;0.50;;;16.40;60.80;;;-142.21;98.58;112049.66;5062825;28;20453;-75
2022/04/07 08:35:51;;;;;;;0.60;0.60;;;16.20;59.90;;;-142.21;100.00;112049.66;5052555;28;20929;-74
2022/04/07 08:38:19;;;;;;;0.97;0.50;;;16.20;60.70;;;-142.21;100.00;112049.66;5052236;28;20455;-74
2022/04/07 08:40:51;;;;;;;0.50;0.50;;;16.20;60.80;;;-142.21;100.00;112049.66;5062202;28;20536;-74
2022/04/07 08:43:18;;;;;;;0.97;0.87;;;16.10;61.50;;;-142.21;100.00;112049.66;5061889;28;20536;-75
2022/04/07 08:45:47;;;;;;;1.50;0.60;;;16.00;62.00;;;-142.21;100.00;112049.66;5053724;28;20444;-72
2022/04/07 08:48:14;;;;;;;0.67;0.50;;;15.90;63.40;;;-142.21;100.00;112049.66;5052628;28;20436;-75
2022/04/07 08:50:45;;;;;;;0.70;0.60;;;16.00;63.70;;;-142.21;100.00;112049.66;5052446;28;20448;-75
2022/04/07 08:53:14;;;;;;;0.67;0.60;;;16.10;63.60;;;-142.21;100.00;112049.66;5051948;28;20436;-75
2022/04/07 08:55:41;;;;;;;0.50;0.40;;;16.20;63.30;;;-142.21;100.00;112049.66;5052166;28;20480;-75
2022/04/07 08:58:10;;;;;;;1.17;0.40;;;16.30;63.70;;;-142.21;100.00;112049.66;5051667;28;20471;-75
2022/04/07 09:00:37;;;;;;;0.90;0.50;;;16.20;64.20;;;-142.21;100.00;112049.66;5052705;28;20488;-75
2022/04/07 09:03:04;;;;;;;1.97;0.73;;;16.20;63.00;;;-142.21;100.00;112049.66;5052886;28;20448;-74
2022/04/07 09:05:31;;;;;;;1.40;0.70;;;16.20;63.80;;;-142.21;100.00;112049.66;5064173;28;20447;-75
2022/04/07 09:08:00;;;;;;;1.40;0.70;;;16.30;63.50;;;-142.21;100.00;112049.66;5053339;28;20811;-74
2022/04/07 09:10:28;;;;;;;1.27;0.50;;;16.50;64.30;;;-142.21;100.00;112049.66;5051525;28;20456;-74
2022/04/07 09:13:03;;;;;;;0.70;0.40;;;16.70;64.00;;;-142.21;100.00;112049.66;5056918;28;20567;-75
2022/04/07 09:15:31;;;;;;;0.30;0.30;;;17.00;63.10;;;-142.21;100.00;112049.66;5050823;28;20535;-74
2022/04/07 09:18:00;;;;;;;0.40;0.40;;;17.30;63.00;;;-142.21;100.00;112049.66;5053727;28;20444;-75
2022/04/07 09:20:28;;;;;;;0.70;0.70;;;17.40;62.40;;;-142.21;100.00;112049.66;5054854;28;20511;-76
2022/04/07 09:23:00;;;;;;;0.50;0.50;;;17.70;61.90;;;-142.21;100.00;112049.66;5053882;28;20535;-75
2022/04/07 09:25:28;;;;;;;0.57;0.53;;;17.90;62.00;;;-142.21;100.00;112049.66;5048356;28;20515;-75
2022/04/07 09:28:00;;;;;;;2.17;0.50;;;17.80;61.00;;;-142.21;100.00;112049.66;5040501;28;20524;-75
2022/04/07 09:30:37;;;;;;;0.40;0.40;;;17.70;61.30;;;-142.21;100.00;112049.66;5041249;28;20445;-75
2022/04/07 09:33:04;;;;;;;1.23;0.50;;;17.40;61.90;;;-142.21;100.00;112049.66;5046203;28;20448;-75
2022/04/07 09:35:31;;;;;;;0.40;0.40;;;17.20;63.70;;;-142.21;100.00;112049.66;5048429;28;20995;-75
2022/04/07 09:38:04;;;;;;;0.70;0.60;;;17.20;63.90;;;-142.21;100.00;112049.66;5048319;28;20492;-75
2022/04/07 09:40:31;;;;;;;0.50;0.50;;;17.10;63.90;;;-142.21;100.00;112049.66;5040037;28;20468;-75
2022/04/07 09:42:59;;;;;;;0.73;0.60;;;17.00;64.70;;;-142.21;100.00;112049.66;5049137;28;20520;-75
2022/04/07 09:45:27;;;;;;;0.50;0.50;;;16.90;64.50;;;-142.21;100.00;112049.66;5050266;28;20464;-75
2022/04/07 09:47:55;;;;;;;1.70;0.57;;;16.70;65.10;;;-142.21;100.00;112049.66;5043201;28;20489;-76
2022/04/07 09:50:28;;;;;;;0.60;0.60;;;16.70;64.80;;;-142.21;100.00;112049.66;5045227;28;20445;-74
2022/04/07 09:52:57;;;;;;;0.83;0.57;;;16.60;63.60;;;-142.21;100.00;112049.66;5048111;28;20607;-75
2022/04/07 09:55:32;;;;;;;0.93;0.80;;;16.60;63.30;;;-142.21;100.00;112049.66;5055203;28;20448;-73